Thursday, October 19, 2017, 7:04 AM EDT
Back to Local

KISP, Islip Long Island Mac Art

Location: Ronkonkoma, NY, United States Lat: 40.8
Local Time: 7:04 AM EDT (11:04 GMT) Lon: -73.1
Time Zone: US/Eastern Elev: 98 ft

Show me the last for .
Show Decoded

2017-10-19 05:56 METAR KISP 190956Z 00000KT 10SM FEW250 10/09 A3026 RMK AO2 SLP246 T01000094 =
2017-10-19 04:56 METAR KISP 190856Z AUTO 00000KT 10SM CLR 10/09 A3026 RMK AO2 SLP245 T01000089
                 55005 =
2017-10-19 03:56 METAR KISP 190756Z AUTO 00000KT 10SM CLR 11/10 A3025 RMK AO2 SLP244 T01060100 =
2017-10-19 02:56 METAR KISP 190656Z AUTO 22003KT 10SM CLR 12/11 A3027 RMK AO2 SLP248 T01170106 =
2017-10-19 01:56 METAR KISP 190556Z AUTO 24004KT 10SM CLR 12/11 A3027 RMK AO2 SLP250 T01170111
                 10144 20117 56006 =
2017-10-19 00:56 METAR KISP 190456Z AUTO 00000KT 10SM CLR 12/12 A3027 RMK AO2 SLP250 T01220117
                 402220072 =
2017-10-18 23:56 METAR KISP 190356Z 00000KT 8SM CLR 13/12 A3028 RMK AO2 SLP253 LAST T01280117 =
2017-10-18 22:56 METAR KISP 190256Z 00000KT 10SM CLR 12/11 A3029 RMK AO2 SLP256 T01170111 50002 =
2017-10-18 21:56 METAR KISP 190156Z 00000KT 10SM CLR 13/12 A3029 RMK AO2 SLP257 T01280117 =
2017-10-18 20:56 METAR KISP 190056Z 25003KT 10SM CLR 14/12 A3029 RMK AO2 SLP255 T01390122 =
2017-10-18 19:56 METAR KISP 182356Z 24003KT 10SM CLR 14/12 A3028 RMK AO2 SLP254 T01440122 10217
                 20144 51008 =
2017-10-18 18:56 METAR KISP 182256Z 23004KT 10SM CLR 15/12 A3028 RMK AO2 SLP252 T01500117 =
2017-10-18 17:56 METAR KISP 182156Z 22008KT 10SM FEW250 17/10 A3027 RMK AO2 SLP248 T01720100 =
2017-10-18 16:56 METAR KISP 182056Z 22006KT 10SM FEW250 18/11 A3026 RMK AO2 SLP246 T01830106
                 55004 =
2017-10-18 15:56 METAR KISP 181956Z 18009KT 10SM FEW250 20/09 A3026 RMK AO2 SLP245 T02000094 =
2017-10-18 14:56 METAR KISP 181856Z 17008KT 10SM FEW250 21/10 A3026 RMK AO2 SLP248 T02110100 =
2017-10-18 13:56 METAR KISP 181756Z VRB03KT 10SM FEW250 22/08 A3027 RMK AO2 SLP250 T02170083
                 10222 20100 58013 =
2017-10-18 12:56 METAR KISP 181656Z 00000KT 10SM FEW250 21/08 A3029 RMK AO2 SLP257 T02110078 =
2017-10-18 11:56 METAR KISP 181556Z 00000KT 10SM FEW250 19/07 A3031 RMK AO2 SLP263 T01940072 =
2017-10-18 10:56 METAR KISP 181456Z 32004KT 10SM FEW250 17/07 A3031 RMK AO2 SLP263 T01720067
                 50002 =
2017-10-18 09:56 METAR KISP 181356Z 28004KT 10SM FEW250 15/06 A3032 RMK AO2 SLP265 T01500061 =
2017-10-18 08:56 METAR KISP 181256Z 26006KT 10SM FEW250 12/06 A3031 RMK AO2 SLP264 T01220056 =
2017-10-18 07:56 METAR KISP 181156Z 26005KT 10SM CLR 10/05 A3030 RMK AO2 SLP262 T01000050 10100
                 20072 51009 =

Support USWX by starting your Amazon purchase here.